Time;durP1;ratioP1;P1;durP2;ratioP2;P2;SDS_P1;SDS_P2;PMS_P1;PMS_P2;Temp;Humidity;BMP_temperature;BMP_pressure;BME280_temperature;BME280_humidity;BME280_pressure;Samples;Min_cycle;Max_cycle;Signal;HPM_P1;HPM_P2
2021/09/17 00:02:04;;;;;;;6.27;5.60;;;;;;;11.90;88.61;95760.91;6165472;23;20159;-79
2021/09/17 00:04:29;;;;;;;6.67;5.70;;;;;;;11.88;88.83;95763.66;6163684;23;20167;-78
2021/09/17 00:06:54;;;;;;;7.47;5.77;;;;;;;11.92;89.08;95766.75;6165365;23;20501;-77
2021/09/17 00:09:20;;;;;;;6.43;5.83;;;;;;;11.90;88.48;95758.31;6164677;23;20167;-77
2021/09/17 00:11:46;;;;;;;6.27;5.63;;;;;;;11.87;88.35;95761.22;6164792;23;20167;-76
2021/09/17 00:14:11;;;;;;;6.13;5.53;;;;;;;11.88;88.66;95757.63;6138847;23;20474;-77
2021/09/17 00:16:37;;;;;;;6.00;5.40;;;;;;;11.90;88.19;95755.69;6148985;23;20183;-79
2021/09/17 00:19:02;;;;;;;6.03;5.53;;;;;;;11.85;88.38;95750.16;6164710;23;20234;-78
2021/09/17 00:21:27;;;;;;;6.03;5.40;;;;;;;11.91;88.04;95754.72;6158827;23;20291;-77
2021/09/17 00:23:53;;;;;;;5.97;5.27;;;;;;;11.95;87.89;95755.25;6158087;23;20155;-77
2021/09/17 00:26:18;;;;;;;5.13;4.63;;;;;;;11.89;87.26;95746.25;6134649;23;20187;-78
2021/09/17 00:28:43;;;;;;;7.60;4.90;;;;;;;11.87;87.06;95749.03;6158981;23;20163;-77
2021/09/17 00:31:09;;;;;;;5.90;5.20;;;;;;;11.85;86.61;95747.53;6158812;23;20163;-77
2021/09/17 00:33:34;;;;;;;7.83;5.33;;;;;;;11.90;86.64;95745.28;6133224;23;20163;-76
2021/09/17 00:35:59;;;;;;;5.90;5.40;;;;;;;11.90;86.97;95734.88;6133763;23;20198;-79
2021/09/17 00:38:24;;;;;;;6.10;5.50;;;;;;;11.89;87.63;95743.66;6158105;23;20167;-78
2021/09/17 00:40:50;;;;;;;6.23;5.10;;;;;;;11.86;87.47;95741.38;6132245;23;20163;-77
2021/09/17 00:43:16;;;;;;;5.23;4.73;;;;;;;11.87;87.04;95745.59;6158644;23;20545;-78
2021/09/17 00:45:44;;;;;;;6.80;5.27;;;;;;;11.84;86.93;95741.53;6159048;23;20230;-77
2021/09/17 00:48:09;;;;;;;6.20;5.40;;;;;;;11.84;87.24;95738.91;6134841;23;20163;-78
2021/09/17 00:50:35;;;;;;;5.87;5.20;;;;;;;11.89;87.11;95738.44;6157956;23;20646;-78
2021/09/17 00:53:00;;;;;;;5.73;5.20;;;;;;;11.87;86.11;95740.41;6160773;23;20191;-78
2021/09/17 00:55:25;;;;;;;5.63;5.13;;;;;;;11.82;85.91;95738.22;6132903;23;20210;-76
2021/09/17 00:57:51;;;;;;;4.97;4.57;;;;;;;11.86;86.24;95733.56;6159129;23;20234;-77
2021/09/17 01:00:16;;;;;;;6.20;4.73;;;;;;;11.86;86.54;95729.19;6135312;23;20162;-77
2021/09/17 01:02:42;;;;;;;4.80;4.40;;;;;;;11.89;86.56;95735.84;6160635;23;20159;-78
2021/09/17 01:05:09;;;;;;;6.00;5.17;;;;;;;11.91;86.44;95734.72;6159120;23;20175;-77
2021/09/17 01:07:34;;;;;;;6.07;5.47;;;;;;;11.94;87.01;95736.22;6160231;23;20233;-77
2021/09/17 01:10:00;;;;;;;5.77;4.80;;;;;;;11.97;87.31;95730.72;6160647;23;20167;-77
2021/09/17 01:12:25;;;;;;;5.40;5.00;;;;;;;11.98;87.93;95724.53;6136124;23;20166;-78
2021/09/17 01:14:51;;;;;;;9.20;5.20;;;;;;;11.97;88.41;95725.50;6159522;23;20150;-78
2021/09/17 01:17:18;;;;;;;7.00;5.37;;;;;;;11.99;88.48;95731.38;6160590;23;20151;-77
2021/09/17 01:19:45;;;;;;;6.57;5.50;;;;;;;12.01;88.71;95729.44;6160168;23;20545;-78
2021/09/17 01:22:10;;;;;;;7.37;6.13;;;;;;;12.00;88.49;95724.38;6135845;23;20167;-77
2021/09/17 01:24:37;;;;;;;7.90;5.80;;;;;;;12.00;88.39;95725.19;6135600;23;20167;-77
2021/09/17 01:27:03;;;;;;;7.50;5.43;;;;;;;11.96;87.73;95723.88;6135674;23;20315;-78
2021/09/17 01:29:29;;;;;;;6.87;5.90;;;;;;;11.97;87.54;95720.31;6136555;23;20504;-78
2021/09/17 01:31:54;;;;;;;6.60;6.03;;;;;;;11.99;87.48;95723.56;6161378;23;20637;-78
2021/09/17 01:34:22;;;;;;;10.07;6.13;;;;;;;12.02;87.04;95715.47;6160763;23;20166;-78
2021/09/17 01:36:48;;;;;;;7.13;6.43;;;;;;;12.03;87.53;95724.91;6160662;23;20644;-79
2021/09/17 01:39:14;;;;;;;7.53;6.73;;;;;;;12.06;87.42;95710.75;6159140;23;20589;-79
2021/09/17 01:41:40;;;;;;;6.43;5.83;;;;;;;12.06;87.50;95716.78;6161296;23;20181;-77
2021/09/17 01:44:06;;;;;;;9.53;7.40;;;;;;;12.04;87.04;95705.72;6160224;23;20843;-78
2021/09/17 01:46:31;;;;;;;7.83;7.13;;;;;;;12.08;87.21;95706.22;6136195;23;20242;-78
2021/09/17 01:48:56;;;;;;;7.13;6.10;;;;;;;12.09;87.38;95700.84;6160059;23;20163;-77
2021/09/17 01:51:22;;;;;;;6.90;6.27;;;;;;;12.08;87.32;95696.63;6161303;23;20163;-78
2021/09/17 01:53:47;;;;;;;7.03;6.33;;;;;;;12.10;87.21;95699.91;6135724;23;20605;-78
2021/09/17 01:56:13;;;;;;;16.57;7.60;;;;;;;12.09;87.33;95695.66;6139985;23;20183;-79
2021/09/17 01:58:38;;;;;;;9.10;7.00;;;;;;;12.10;87.95;95694.69;6160783;23;20159;-78
2021/09/17 02:01:04;;;;;;;8.57;6.93;;;;;;;12.10;88.44;95692.09;6136303;23;20162;-77
2021/09/17 02:03:29;;;;;;;8.53;6.73;;;;;;;12.13;88.57;95696.19;6160637;23;20151;-78
2021/09/17 02:05:55;;;;;;;6.87;6.23;;;;;;;12.15;88.62;95696.84;6159496;23;20175;-78
2021/09/17 02:08:20;;;;;;;7.97;6.27;;;;;;;12.10;89.61;95689.50;6160738;23;20219;-79
2021/09/17 02:10:45;;;;;;;9.73;6.07;;;;;;;12.11;89.75;95695.53;6160459;23;20230;-80
2021/09/17 02:13:12;;;;;;;9.07;5.97;;;;;;;12.09;89.86;95687.03;6160681;23;20171;-78
2021/09/17 02:15:37;;;;;;;7.07;6.37;;;;;;;12.09;89.97;95687.03;6165556;23;20687;-77
2021/09/17 02:18:03;;;;;;;7.10;6.47;;;;;;;12.10;90.24;95684.28;6171247;23;20159;-78
2021/09/17 02:20:28;;;;;;;7.20;6.60;;;;;;;12.11;89.59;95692.91;6171321;23;20595;-80
2021/09/17 02:22:54;;;;;;;8.37;6.63;;;;;;;12.04;89.11;95687.50;6171503;23;20158;-79
2021/09/17 02:25:19;;;;;;;6.63;6.00;;;;;;;12.07;89.02;95694.19;6144891;23;20179;-79
2021/09/17 02:27:47;;;;;;;7.13;6.40;;;;;;;12.06;88.59;95688.16;6170664;23;20171;-80
2021/09/17 02:30:13;;;;;;;9.97;6.67;;;;;;;12.09;88.52;95700.03;6146791;23;20167;-79
2021/09/17 02:32:38;;;;;;;8.77;6.70;;;;;;;12.09;88.67;95692.22;6171471;23;20158;-79
2021/09/17 02:35:04;;;;;;;7.17;6.57;;;;;;;12.10;89.06;95689.50;6169768;23;20171;-79
2021/09/17 02:37:29;;;;;;;8.20;7.27;;;;;;;12.11;89.66;95685.09;6145403;23;20170;-78
2021/09/17 02:39:55;;;;;;;7.90;7.10;;;;;;;12.12;89.72;95689.34;6167628;23;20183;-80
2021/09/17 02:42:20;;;;;;;10.10;7.53;;;;;;;12.15;90.14;95692.44;6169128;23;20155;-80
2021/09/17 02:44:46;;;;;;;7.93;7.13;;;;;;;12.15;89.65;95689.03;6167573;23;20163;-77
2021/09/17 02:47:11;;;;;;;8.87;6.83;;;;;;;12.07;88.79;95691.56;6168305;23;20167;-79
2021/09/17 02:49:36;;;;;;;8.47;6.40;;;;;;;12.05;88.38;95690.91;6168109;23;20602;-77
2021/09/17 02:52:02;;;;;;;8.60;7.70;;;;;;;12.06;88.46;95692.53;6142641;23;20155;-79
2021/09/17 02:54:28;;;;;;;13.20;7.50;;;;;;;12.06;88.36;95690.75;6142197;23;20201;-80
2021/09/17 02:56:53;;;;;;;8.43;7.57;;;;;;;12.09;88.51;95687.03;6167857;23;20171;-80
2021/09/17 02:59:18;;;;;;;9.63;8.00;;;;;;;12.10;88.34;95684.28;6166712;23;20151;-79
2021/09/17 03:01:43;;;;;;;12.17;8.00;;;;;;;12.12;88.46;95682.34;6142205;23;20171;-80
2021/09/17 03:04:09;;;;;;;9.60;7.53;;;;;;;12.12;88.11;95673.72;6140513;23;20174;-77
2021/09/17 03:06:34;;;;;;;7.83;7.13;;;;;;;12.12;87.89;95671.94;6166022;23;20179;-80
2021/09/17 03:08:59;;;;;;;8.17;7.07;;;;;;;12.11;88.01;95674.69;6168551;23;20172;-79
2021/09/17 03:11:25;;;;;;;9.03;7.70;;;;;;;12.10;88.02;95665.22;6166627;23;20166;-78
2021/09/17 03:13:50;;;;;;;9.77;7.70;;;;;;;12.09;88.25;95669.63;6166311;23;20171;-79
2021/09/17 03:16:15;;;;;;;8.10;7.30;;;;;;;12.05;87.75;95665.69;6164938;23;20649;-80
2021/09/17 03:18:41;;;;;;;7.27;6.67;;;;;;;12.00;88.22;95665.34;6164647;23;20694;-78
2021/09/17 03:21:06;;;;;;;7.47;6.73;;;;;;;11.96;88.20;95663.19;6165089;23;20159;-79
2021/09/17 03:23:33;;;;;;;9.73;7.47;;;;;;;11.89;88.72;95658.59;6164015;23;20155;-79
2021/09/17 03:25:58;;;;;;;7.50;6.70;;;;;;;11.84;88.68;95662.66;6162411;23;20621;-79
2021/09/17 03:28:24;;;;;;;9.30;7.30;;;;;;;11.75;89.07;95655.69;6139134;23;20162;-79
2021/09/17 03:30:49;;;;;;;7.80;7.00;;;;;;;11.66;88.67;95659.22;6163056;23;20162;-78
2021/09/17 03:33:15;;;;;;;8.03;7.33;;;;;;;11.61;89.05;95670.09;6163429;23;20155;-79
2021/09/17 03:35:41;;;;;;;8.33;7.43;;;;;;;11.54;88.93;95667.25;6162645;23;20186;-79
2021/09/17 03:38:07;;;;;;;8.43;7.50;;;;;;;11.47;88.81;95655.81;6164736;23;20162;-79
2021/09/17 03:40:33;;;;;;;8.20;7.27;;;;;;;11.40;89.17;95661.78;6162177;23;20151;-79
2021/09/17 03:42:58;;;;;;;9.80;7.47;;;;;;;11.31;89.21;95664.31;6163328;23;20156;-79
2021/09/17 03:45:23;;;;;;;9.50;7.10;;;;;;;11.24;89.10;95655.47;6161663;23;20194;-79
2021/09/17 03:47:49;;;;;;;7.57;6.97;;;;;;;11.17;89.51;95667.44;6138445;23;20194;-80
2021/09/17 03:50:14;;;;;;;7.67;6.97;;;;;;;11.11;89.24;95667.19;6162395;23;20166;-79
2021/09/17 03:52:39;;;;;;;8.40;7.40;;;;;;;11.00;89.63;95663.84;6139720;23;20560;-78
2021/09/17 03:55:05;;;;;;;9.80;8.50;;;;;;;10.92;90.27;95662.94;6136557;23;20187;-80
2021/09/17 03:57:31;;;;;;;8.70;7.90;;;;;;;10.95;90.01;95663.47;6139060;23;20163;-79
2021/09/17 03:59:56;;;;;;;8.33;7.50;;;;;;;10.89;89.79;95660.66;6163256;23;20155;-79
2021/09/17 04:02:21;;;;;;;9.37;7.73;;;;;;;10.82;89.80;95655.22;6165340;23;20159;-79
2021/09/17 04:04:46;;;;;;;8.43;6.87;;;;;;;10.80;90.10;95649.34;6163759;23;20162;-79
2021/09/17 04:07:12;;;;;;;7.80;7.00;;;;;;;10.77;90.21;95652.22;6162879;23;20167;-78
2021/09/17 04:09:37;;;;;;;8.57;7.83;;;;;;;10.74;90.51;95655.13;6162119;23;20159;-78
2021/09/17 04:12:03;;;;;;;9.17;7.47;;;;;;;10.71;90.45;95658.03;6162741;23;20147;-79
2021/09/17 04:14:28;;;;;;;8.20;7.40;;;;;;;10.67;90.17;95661.84;6161470;23;20162;-77
2021/09/17 04:16:53;;;;;;;10.13;7.53;;;;;;;10.63;89.80;95663.13;6138757;23;20447;-79
2021/09/17 04:19:19;;;;;;;8.47;7.57;;;;;;;10.57;89.98;95661.09;6161509;23;20159;-80
2021/09/17 04:21:44;;;;;;;8.83;7.77;;;;;;;10.54;90.17;95657.03;6138383;23;20155;-80
2021/09/17 04:24:09;;;;;;;8.03;7.30;;;;;;;10.46;90.08;95655.13;6162748;23;20186;-79
2021/09/17 04:26:35;;;;;;;7.90;7.20;;;;;;;10.41;90.28;95665.13;6163377;23;20202;-79
2021/09/17 04:29:00;;;;;;;9.87;7.27;;;;;;;10.37;90.17;95661.19;6140282;23;20164;-80
2021/09/17 04:31:25;;;;;;;8.17;7.27;;;;;;;10.35;90.29;95667.50;6163664;23;20151;-79
2021/09/17 04:33:51;;;;;;;7.37;6.60;;;;;;;10.28;90.26;95669.84;6162025;23;20166;-79
2021/09/17 04:36:16;;;;;;;7.30;6.60;;;;;;;10.25;90.42;95672.72;6139477;23;20234;-80
2021/09/17 04:38:41;;;;;;;8.33;7.53;;;;;;;10.24;90.40;95671.06;6163676;23;20168;-79
2021/09/17 04:41:07;;;;;;;7.80;7.03;;;;;;;10.20;90.53;95665.31;6162016;23;20190;-79
2021/09/17 04:43:32;;;;;;;11.60;7.80;;;;;;;10.20;90.53;95667.94;6162582;23;20190;-77
2021/09/17 04:45:57;;;;;;;9.57;7.87;;;;;;;10.20;90.64;95667.94;6163167;23;20663;-77
2021/09/17 04:48:23;;;;;;;8.53;7.73;;;;;;;10.21;90.51;95666.16;6163114;23;20173;-79
2021/09/17 04:50:48;;;;;;;8.90;8.00;;;;;;;10.22;90.40;95662.63;6163835;23;20231;-78
2021/09/17 04:53:14;;;;;;;8.73;7.90;;;;;;;10.23;90.51;95663.44;6163896;23;20527;-78
2021/09/17 04:55:39;;;;;;;10.73;8.27;;;;;;;10.21;90.28;95663.56;6137759;23;20225;-80
2021/09/17 04:58:07;;;;;;;8.33;7.53;;;;;;;10.19;90.23;95671.47;6163992;23;20159;-80
2021/09/17 05:00:33;;;;;;;9.73;8.43;;;;;;;10.17;89.96;95667.41;6164785;23;20491;-80
2021/09/17 05:02:58;;;;;;;9.70;8.70;;;;;;;10.16;89.99;95668.38;6164428;23;20223;-77
2021/09/17 05:05:24;;;;;;;11.13;8.87;;;;;;;10.18;89.93;95671.63;6139296;23;20637;-78
2021/09/17 05:07:50;;;;;;;9.90;8.90;;;;;;;10.08;89.86;95666.47;6164444;23;20247;-78
2021/09/17 05:10:15;;;;;;;10.30;8.30;;;;;;;10.09;89.82;95667.28;6165277;23;20160;-78
2021/09/17 05:12:40;;;;;;;9.90;8.70;;;;;;;10.08;90.11;95678.63;6164406;23;20156;-78
2021/09/17 05:15:06;;;;;;;9.50;8.50;;;;;;;10.07;90.03;95674.38;6140614;23;20179;-77
2021/09/17 05:17:31;;;;;;;9.00;8.17;;;;;;;10.05;89.96;95676.28;6165921;23;20173;-78
2021/09/17 05:19:57;;;;;;;8.67;7.87;;;;;;;10.03;89.71;95679.03;6140118;23;20160;-77
2021/09/17 05:22:22;;;;;;;10.23;8.13;;;;;;;10.06;89.74;95678.75;6165739;23;20167;-78
2021/09/17 05:24:48;;;;;;;9.77;8.30;;;;;;;10.10;89.53;95681.91;6164535;23;20159;-78
2021/09/17 05:27:14;;;;;;;9.30;8.37;;;;;;;10.12;88.96;95679.97;6141515;23;20831;-79
2021/09/17 05:29:41;;;;;;;10.27;8.77;;;;;;;10.21;89.27;95681.72;6143466;23;20627;-77
2021/09/17 05:32:07;;;;;;;16.37;8.53;;;;;;;10.26;89.16;95674.38;6141865;23;20174;-76
2021/09/17 05:34:32;;;;;;;9.00;7.93;;;;;;;10.27;88.93;95675.19;6141467;23;20159;-77
2021/09/17 05:36:57;;;;;;;9.00;8.10;;;;;;;10.34;88.44;95678.84;6169215;23;20167;-79
2021/09/17 05:39:22;;;;;;;9.63;8.53;;;;;;;10.36;88.34;95676.91;6167551;23;20147;-78
2021/09/17 05:41:49;;;;;;;9.43;8.33;;;;;;;10.50;88.16;95676.44;6167694;23;20633;-77
2021/09/17 05:44:14;;;;;;;11.33;9.03;;;;;;;10.59;88.32;95674.75;6142331;23;20162;-79
2021/09/17 05:46:39;;;;;;;11.50;9.20;;;;;;;10.65;88.17;95677.59;6168658;23;20179;-77
2021/09/17 05:49:05;;;;;;;9.70;8.80;;;;;;;10.71;87.96;95684.00;6168818;23;20170;-78
2021/09/17 05:51:30;;;;;;;11.47;8.90;;;;;;;10.75;88.43;95680.94;6167879;23;20160;-78
2021/09/17 05:53:55;;;;;;;11.93;9.83;;;;;;;10.85;88.52;95690.47;6168161;23;20182;-78
2021/09/17 05:56:21;;;;;;;14.97;11.77;;;;;;;10.93;88.66;95682.75;6167917;23;20186;-76
2021/09/17 05:58:46;;;;;;;14.43;12.83;;;;;;;11.00;88.79;95679.44;6169197;23;20823;-78
2021/09/17 06:01:11;;;;;;;16.13;13.13;;;;;;;11.06;89.09;95681.47;6168322;23;20163;-77
2021/09/17 06:03:37;;;;;;;18.20;12.93;;;;;;;11.12;89.08;95680.03;6166752;23;20261;-79
2021/09/17 06:06:02;;;;;;;16.23;12.97;;;;;;;11.15;89.63;95677.16;6142307;23;20182;-78
2021/09/17 06:08:28;;;;;;;13.83;12.23;;;;;;;11.19;89.16;95670.69;6144476;23;20213;-77
2021/09/17 06:10:54;;;;;;;13.73;12.40;;;;;;;11.30;89.10;95672.25;6170068;23;20155;-78
2021/09/17 06:13:19;;;;;;;17.10;13.73;;;;;;;11.41;88.99;95669.44;6146721;23;20158;-78
2021/09/17 06:15:44;;;;;;;15.03;11.90;;;;;;;11.50;89.02;95671.13;6172803;23;20182;-79
2021/09/17 06:18:10;;;;;;;14.40;12.53;;;;;;;11.63;88.75;95670.75;6147862;23;20163;-77
2021/09/17 06:20:35;;;;;;;13.83;12.33;;;;;;;11.68;88.55;95665.91;6146708;23;20226;-79
2021/09/17 06:23:00;;;;;;;16.43;12.67;;;;;;;11.77;88.02;95672.00;6146315;23;20166;-78
2021/09/17 06:25:26;;;;;;;16.13;13.07;;;;;;;11.77;88.27;95674.59;6170447;23;20482;-78
2021/09/17 06:27:51;;;;;;;14.13;11.87;;;;;;;11.84;88.04;95679.06;6171350;23;20194;-79
2021/09/17 06:30:18;;;;;;;19.87;13.40;;;;;;;11.90;88.13;95672.44;6150366;23;20187;-78
2021/09/17 06:32:44;;;;;;;13.63;12.33;;;;;;;12.02;87.92;95668.63;6176217;23;20177;-80
2021/09/17 06:35:10;;;;;;;15.27;12.70;;;;;;;12.01;87.87;95671.34;6173430;23;20175;-77
2021/09/17 06:37:43;;;;;;;14.43;12.77;;;;;;;12.12;87.85;95665.91;6172841;23;20222;-78
2021/09/17 06:40:09;;;;;;;15.53;12.43;;;;;;;12.21;87.59;95674.59;6144737;23;20210;-78
2021/09/17 06:42:34;;;;;;;14.70;13.20;;;;;;;12.26;87.19;95675.72;6145487;23;20159;-78
2021/09/17 06:44:59;;;;;;;15.60;12.67;;;;;;;12.36;87.09;95676.44;6171450;23;20182;-79
2021/09/17 06:47:25;;;;;;;17.87;14.83;;;;;;;12.36;87.08;95671.22;6146979;23;20183;-78
2021/09/17 06:49:50;;;;;;;17.53;15.73;;;;;;;12.41;86.73;95668.97;6172927;23;20183;-79
2021/09/17 06:52:15;;;;;;;16.60;14.90;;;;;;;12.60;86.50;95670.53;6171908;23;20174;-79
2021/09/17 06:54:40;;;;;;;17.50;15.77;;;;;;;12.81;86.06;95674.50;6146057;23;20182;-78
2021/09/17 06:57:06;;;;;;;18.30;15.20;;;;;;;12.81;84.96;95671.88;6146481;23;20155;-79
2021/09/17 06:59:31;;;;;;;20.90;16.07;;;;;;;12.86;84.99;95669.63;6146357;23;20160;-78
2021/09/17 07:01:56;;;;;;;18.13;16.40;;;;;;;13.05;84.85;95675.38;6171908;23;20163;-79
2021/09/17 07:04:22;;;;;;;20.03;17.93;;;;;;;13.03;83.78;95679.13;6146857;23;20159;-79
2021/09/17 07:06:47;;;;;;;17.40;15.60;;;;;;;13.07;83.67;95672.63;6171606;23;20183;-77
2021/09/17 07:09:12;;;;;;;17.97;15.03;;;;;;;13.17;83.27;95678.53;6146179;23;20202;-79
2021/09/17 07:11:37;;;;;;;16.63;14.93;;;;;;;13.34;82.93;95682.00;6171860;23;20151;-79
2021/09/17 07:14:03;;;;;;;16.50;14.77;;;;;;;13.32;81.92;95681.34;6170693;23;20162;-78
2021/09/17 07:16:28;;;;;;;17.93;12.57;;;;;;;13.53;81.79;95680.88;6173374;23;20171;-78
2021/09/17 07:18:53;;;;;;;17.63;14.57;;;;;;;13.68;81.32;95681.84;6173506;23;20205;-78
2021/09/17 07:21:19;;;;;;;14.10;12.67;;;;;;;13.79;81.39;95681.53;6170497;23;20504;-77
2021/09/17 07:23:44;;;;;;;15.60;13.07;;;;;;;13.94;81.33;95692.09;6170465;23;20617;-81
2021/09/17 07:26:09;;;;;;;13.03;11.57;;;;;;;14.06;80.95;95680.38;6170954;23;20191;-76
2021/09/17 07:28:35;;;;;;;13.90;11.83;;;;;;;14.21;80.25;95683.09;6173724;23;20179;-78
2021/09/17 07:31:01;;;;;;;14.80;12.00;;;;;;;14.17;78.84;95677.41;6171089;23;20182;-78
2021/09/17 07:33:26;;;;;;;13.13;11.83;;;;;;;14.15;79.63;95681.16;6171082;23;20152;-76
2021/09/17 07:35:52;;;;;;;15.67;14.03;;;;;;;14.28;77.90;95689.28;6172144;23;20502;-79
2021/09/17 07:38:17;;;;;;;12.87;11.47;;;;;;;14.46;78.47;95686.50;6170754;23;20158;-79
2021/09/17 07:40:43;;;;;;;15.47;12.30;;;;;;;14.56;76.68;95686.31;6169181;23;20155;-78
2021/09/17 07:43:08;;;;;;;13.97;12.47;;;;;;;14.59;76.24;95691.22;6146156;23;20267;-78
2021/09/17 07:45:33;;;;;;;15.17;12.23;;;;;;;14.74;73.90;95689.50;6169380;23;20180;-78
2021/09/17 07:48:00;;;;;;;14.17;12.67;;;;;;;14.73;74.00;95693.09;6170788;23;20159;-76
2021/09/17 07:50:26;;;;;;;14.03;11.27;;;;;;;14.76;72.85;95698.00;6169247;23;20254;-78
2021/09/17 07:52:51;;;;;;;12.83;11.53;;;;;;;14.96;71.66;95693.19;6145977;23;20186;-77
2021/09/17 07:55:17;;;;;;;15.20;11.60;;;;;;;14.73;72.97;95691.28;6168889;23;20274;-79
2021/09/17 07:57:43;;;;;;;12.97;11.73;;;;;;;14.75;73.36;95696.34;6170274;23;20158;-77
2021/09/17 08:00:10;;;;;;;13.57;10.47;;;;;;;15.12;73.20;95689.66;6168668;23;20159;-78
2021/09/17 08:02:35;;;;;;;13.40;11.87;;;;;;;15.05;73.67;95688.72;6168735;23;20159;-79
2021/09/17 08:05:00;;;;;;;16.03;12.80;;;;;;;15.09;73.54;95688.19;6167732;23;20202;-77
2021/09/17 08:07:26;;;;;;;14.20;12.67;;;;;;;15.13;74.25;95689.50;6167577;23;20187;-78
2021/09/17 08:09:52;;;;;;;14.43;12.00;;;;;;;15.52;71.35;95693.81;6167698;23;20210;-78
2021/09/17 08:12:17;;;;;;;13.60;12.23;;;;;;;15.45;71.10;95691.06;6167964;23;20174;-78
2021/09/17 08:14:42;;;;;;;12.57;11.20;;;;;;;15.46;71.05;95697.97;6169134;23;20151;-79
2021/09/17 08:17:08;;;;;;;16.15;11.55;;;;;;;15.15;70.16;95697.97;6170829;23;20637;-78
2021/09/17 08:19:33;;;;;;;16.37;11.23;;;;;;;15.39;70.86;95690.97;6150825;23;20159;-77
2021/09/17 08:21:58;;;;;;;13.98;11.23;;;;;;;15.51;70.82;95694.81;6145147;23;20163;-79
2021/09/17 08:24:24;;;;;;;12.30;10.52;;;;;;;15.59;69.23;95687.72;6176865;23;20155;-77
2021/09/17 08:26:51;;;;;;;13.68;10.98;;;;;;;15.74;69.17;95695.66;6174251;23;20218;-77
2021/09/17 08:29:16;;;;;;;14.35;11.02;;;;;;;15.91;67.89;95701.59;6165146;23;20159;-79
2021/09/17 08:31:42;;;;;;;11.90;10.55;;;;;;;15.67;68.42;95691.28;6164442;23;20162;-79
2021/09/17 08:34:08;;;;;;;15.52;10.60;;;;;;;15.57;67.90;95701.97;6163787;23;20170;-78
2021/09/17 08:36:33;;;;;;;11.57;9.82;;;;;;;15.86;67.49;95690.81;6140228;23;20171;-78
2021/09/17 08:38:59;;;;;;;12.88;9.68;;;;;;;15.83;66.62;95697.22;6138356;23;20167;-79
2021/09/17 08:41:25;;;;;;;10.98;9.88;;;;;;;15.76;68.33;95695.47;6163546;23;20155;-78
2021/09/17 08:43:50;;;;;;;14.45;9.77;;;;;;;15.85;68.56;95695.22;6138499;23;20155;-78
2021/09/17 08:46:16;;;;;;;14.20;10.07;;;;;;;16.08;67.01;95697.81;6139703;23;20533;-78
2021/09/17 08:48:42;;;;;;;10.18;9.13;;;;;;;15.97;68.24;95698.22;6164151;23;20162;-79
2021/09/17 08:51:08;;;;;;;11.00;9.57;;;;;;;16.31;66.76;95699.56;6136157;23;20156;-77
2021/09/17 08:53:33;;;;;;;11.55;8.43;;;;;;;16.29;67.63;95706.78;6160329;23;20162;-78
2021/09/17 08:55:59;;;;;;;12.20;9.40;;;;;;;16.19;67.17;95706.25;6136533;23;20233;-79
2021/09/17 08:58:24;;;;;;;10.65;9.38;;;;;;;16.56;66.46;95700.94;6136404;23;20171;-77
2021/09/17 09:00:50;;;;;;;11.80;9.55;;;;;;;16.39;65.89;95700.28;6161776;23;20155;-77
2021/09/17 09:03:33;;;;;;;10.57;8.75;;;;;;;16.61;65.92;95695.97;6161418;23;20497;-79
2021/09/17 09:06:12;;;;;;;10.48;8.73;;;;;;;16.76;64.87;95695.16;6161466;23;20210;-78
2021/09/17 09:08:40;;;;;;;10.48;8.90;;;;;;;16.68;65.05;95698.66;6137241;23;20552;-78
2021/09/17 09:11:18;;;;;;;11.00;9.10;;;;;;;16.78;65.85;95696.59;6137988;23;20496;-79
2021/09/17 09:14:06;;;;;;;12.30;8.57;;;;;;;17.05;65.21;95695.16;6161708;23;20198;-79
2021/09/17 09:16:45;;;;;;;11.15;8.07;;;;;;;16.82;65.96;95695.25;6162075;23;20198;-80
2021/09/17 09:19:20;;;;;;;9.27;8.32;;;;;;;17.06;63.71;95693.34;6137943;23;20186;-77
2021/09/17 09:21:47;;;;;;;9.65;7.65;;;;;;;16.72;64.87;95697.34;6161906;23;20609;-77
2021/09/17 09:24:23;;;;;;;10.23;7.07;;;;;;;17.05;62.90;95705.66;6162486;23;20151;-79
2021/09/17 09:27:08;;;;;;;11.20;7.55;;;;;;;17.12;65.77;95703.09;6163850;23;20178;-78
2021/09/17 09:29:34;;;;;;;7.90;7.20;;;;;;;16.99;64.34;95698.50;6166006;23;20178;-79
2021/09/17 09:32:00;;;;;;;7.47;6.78;;;;;;;17.05;66.16;95697.78;6139671;23;20170;-77
2021/09/17 09:34:57;;;;;;;9.63;7.75;;;;;;;17.28;62.81;95695.81;6162830;23;20151;-76
2021/09/17 09:37:28;;;;;;;8.80;7.78;;;;;;;17.59;62.31;95688.66;6140242;23;20633;-78
2021/09/17 09:39:54;;;;;;;9.63;7.68;;;;;;;17.49;62.44;95688.94;6166156;23;20166;-79
2021/09/17 09:42:27;;;;;;;7.53;6.75;;;;;;;17.43;62.13;95692.34;6139963;23;20170;-75
2021/09/17 09:45:16;;;;;;;7.40;6.28;;;;;;;17.51;58.76;95686.97;6163081;23;20159;-80
2021/09/17 09:47:45;;;;;;;6.10;5.57;;;;;;;17.23;60.49;95679.00;6164983;23;20249;-77
2021/09/17 09:50:13;;;;;;;7.47;6.28;;;;;;;17.58;60.35;95687.84;6165348;23;20183;-77
2021/09/17 09:52:39;;;;;;;6.00;5.28;;;;;;;17.95;57.06;95693.84;6141033;23;20214;-79
2021/09/17 09:55:05;;;;;;;6.05;5.25;;;;;;;17.71;57.90;95690.63;6164261;23;20246;-79
2021/09/17 09:57:32;;;;;;;6.75;4.75;;;;;;;17.59;58.58;95691.28;6139313;23;20163;-79
2021/09/17 10:00:03;;;;;;;5.25;4.75;;;;;;;17.51;59.29;95692.22;6164940;23;20565;-76
2021/09/17 10:02:28;;;;;;;6.20;4.65;;;;;;;17.53;58.12;95683.16;6164966;23;20470;-78
2021/09/17 10:04:57;;;;;;;6.70;5.30;;;;;;;17.12;61.33;95687.34;6141155;23;20155;-78
2021/09/17 10:07:22;;;;;;;7.38;5.97;;;;;;;17.80;60.04;95683.41;6168917;23;20210;-79
2021/09/17 10:09:48;;;;;;;9.40;5.82;;;;;;;17.70;58.53;95678.50;6144756;23;20170;-79
2021/09/17 10:12:13;;;;;;;6.20;5.60;;;;;;;17.58;59.84;95674.72;6145414;23;20159;-78
2021/09/17 10:14:44;;;;;;;8.98;5.10;;;;;;;17.97;58.67;95676.09;6167872;23;20185;-78
2021/09/17 10:17:14;;;;;;;3.00;2.70;;;;;;;18.01;52.60;95678.13;6142777;23;20161;-79
2021/09/17 10:19:43;;;;;;;3.45;3.25;;;;;;;18.45;52.99;95678.84;6167647;23;20151;-79
2021/09/17 10:22:08;;;;;;;3.20;2.90;;;;;;;18.46;51.92;95683.09;6146438;23;20167;-77
2021/09/17 10:24:38;;;;;;;2.90;2.70;;;;;;;18.30;49.21;95678.97;6170129;23;20613;-78
2021/09/17 10:27:59;;;;;;;3.72;2.85;;;;;;;18.16;50.33;95671.97;6170836;23;20186;-78
2021/09/17 10:30:28;;;;;;;2.40;2.20;;;;;;;18.24;49.33;95675.28;6139300;23;20219;-78
2021/09/17 10:32:54;;;;;;;3.03;2.70;;;;;;;18.45;51.19;95668.31;6113306;23;20167;-79
2021/09/17 10:35:25;;;;;;;2.97;2.63;;;;;;;18.69;51.23;95670.50;6113636;23;20180;-78
2021/09/17 10:37:56;;;;;;;3.53;3.22;;;;;;;18.42;49.70;95671.34;6113964;23;20152;-79
2021/09/17 10:40:42;;;;;;;4.07;3.00;;;;;;;18.79;51.28;95675.41;6137995;23;20166;-79
2021/09/17 10:43:10;;;;;;;2.92;2.50;;;;;;;18.66;51.63;95670.91;6089973;23;20155;-78
2021/09/17 10:45:42;;;;;;;3.33;3.13;;;;;;;18.75;51.32;95680.28;6112782;23;20184;-77
2021/09/17 10:48:08;;;;;;;3.03;2.83;;;;;;;18.82;50.57;95670.59;6113654;23;20144;-77
2021/09/17 10:50:50;;;;;;;3.33;2.55;;;;;;;18.60;48.90;95664.56;6113382;23;20163;-78
2021/09/17 10:53:41;;;;;;;3.40;3.03;;;;;;;18.72;50.67;95662.22;6137752;23;20235;-77
2021/09/17 10:56:13;;;;;;;4.05;3.65;;;;;;;18.46;52.96;95662.06;6124259;23;20187;-79
2021/09/17 10:58:46;;;;;;;4.57;3.88;;;;;;;18.05;55.48;95657.56;6112531;23;20160;-78
2021/09/17 11:01:15;;;;;;;3.72;3.28;;;;;;;18.18;54.07;95656.81;6088896;23;20163;-77
2021/09/17 11:03:40;;;;;;;4.55;3.58;;;;;;;17.79;55.82;95663.41;6104286;23;20170;-79
2021/09/17 11:06:17;;;;;;;5.95;3.50;;;;;;;18.11;52.66;95668.13;6167241;23;20524;-78
2021/09/17 11:08:46;;;;;;;3.40;3.05;;;;;;;18.28;54.14;95667.81;6170409;23;20476;-78
2021/09/17 11:11:22;;;;;;;4.72;3.55;;;;;;;17.86;54.58;95664.28;6169036;23;20162;-77
2021/09/17 11:13:47;;;;;;;4.60;3.80;;;;;;;17.79;55.25;95668.66;6167669;23;20163;-80
2021/09/17 11:16:15;;;;;;;6.68;3.55;;;;;;;17.44;56.44;95665.06;6166693;23;20374;-78
2021/09/17 11:19:01;;;;;;;4.45;3.70;;;;;;;17.18;56.79;95658.56;6165213;23;20159;-79
2021/09/17 11:21:29;;;;;;;3.55;3.20;;;;;;;17.83;55.55;95662.03;6170723;23;20143;-79
2021/09/17 11:23:54;;;;;;;3.75;3.45;;;;;;;17.40;55.38;95664.63;6168549;23;20148;-77
2021/09/17 11:26:30;;;;;;;3.67;2.83;;;;;;;17.39;54.61;95664.81;6169720;23;20191;-77
2021/09/17 11:29:03;;;;;;;3.13;2.92;;;;;;;17.72;52.60;95663.34;6168133;23;20280;-78